Flight Track Log - Related Links

Times and Time Zones

All times are in EDT time to prevent confusion due to time zone crossing. See the N1045F flight status page for this flight to view local times or setup timezone preferences in your user account.

Time Position Orientation Groundspeed Altitude Reporting Facility
EDT Latitude Longitude Course Direction KTS MPH feet Rate Location/Type
Sun 11:19:41 AM 41.2822 -89.9794 90° East 120 138 3,900  Level Chicago Center
Sun 11:20:43 AM 41.3150 -89.9553 29° Northeast 138 159 4,100 387 Climbing Chicago Center
Sun 11:21:45 AM 41.3142 -89.8953 91° East 155 178 4,700 439 Climbing Chicago Center
Sun 11:22:46 AM 41.3119 -89.8369 93° East 158 182 5,000 146 Climbing Chicago Center
Sun 11:23:48 AM 41.3111 -89.7733 91° East 165 190 5,000  Level Chicago Center
Sun 11:24:50 AM 41.3078 -89.7078 94° East 174 200 5,000  Level Chicago Center
Sun 11:25:00 AM 41.2979 -89.6023 90° East  Level Estimated
Sun 11:25:51 AM 41.3067 -89.6425 91° East 176 203 5,000  Level Chicago Center
Sun 11:26:53 AM 41.3039 -89.5667 93° East 173 199 5,000  Level Chicago Center
Sun 11:27:55 AM 41.3011 -89.5014 93° East 175 201 5,000  Level Chicago Center
Sun 11:28:56 AM 41.2992 -89.4375 92° East 174 200 5,000  Level Chicago Center
Sun 11:29:58 AM 41.2969 -89.3725 93° East 174 200 5,000  Level Chicago Center
Sun 11:30:59 AM 41.2928 -89.3050 95° East 178 205 5,000 -49 Level Chicago Center
Sun 11:32:01 AM 41.2889 -89.2383 94° East 180 207 4,900  Descending Chicago Center
Sun 11:33:03 AM 41.2886 -89.1781 90° East 175 201 5,000 48 Climbing Chicago Center
Sun 11:34:05 AM 41.2856 -89.1028 93° East 171 197 5,000  Level Chicago Center
Sun 11:35:06 AM 41.2836 -89.0389 92° East 174 200 5,000  Level Chicago Center
Sun 11:36:08 AM 41.2803 -88.9764 94° East 172 198 5,000  Level Chicago Center
Sun 11:37:10 AM 41.2789 -88.9144 92° East 170 196 5,000  Level Chicago Center
Sun 11:38:11 AM 41.2761 -88.8525 93° East 170 196 5,000  Level Chicago Center
Sun 11:39:13 AM 41.2733 -88.7894 93° East 171 197 5,000  Level Chicago Center
Sun 11:40:15 AM 41.2700 -88.7144 93° East 171 197 5,000  Level Chicago Center
Sun 11:41:17 AM 41.2675 -88.6517 93° East 171 197 5,000  Level Chicago Center
Sun 11:42:18 AM 41.2644 -88.5900 94° East 170 196 5,000  Level Chicago Center
Sun 11:43:20 AM 41.2622 -88.5286 93° East 168 193 5,000  Level Chicago Center
Sun 11:44:22 AM 41.2594 -88.4664 93° East 170 196 5,000  Level Chicago Center
Sun 11:45:24 AM 41.2561 -88.4047 94° East 169 194 5,000  Level Chicago Center
Sun 11:46:25 AM 41.2533 -88.3300 93° East 170 196 5,000  Level Chicago Center
Sun 11:47:27 AM 41.2508 -88.2678 93° East 171 197 5,000  Level Chicago Center
Sun 11:48:29 AM 41.2489 -88.2047 92° East 172 198 5,000  Level Chicago Center
Sun 11:49:31 AM 41.2453 -88.1433 94° East 170 196 5,000  Level Chicago Center
Sun 11:50:33 AM 41.2419 -88.0700 93° East 169 194 5,000  Level Chicago Center
Sun 11:51:35 AM 41.2392 -88.0083 93° East 169 194 5,000  Level Chicago Center
Sun 11:52:36 AM 41.2353 -87.9450 95° East 172 198 5,000  Level Chicago Center
Sun 11:53:38 AM 41.2319 -87.8814 94° East 174 200 5,000  Level Chicago Center
Sun 11:54:40 AM 41.2292 -87.8183 93° East 174 200 5,000  Level Chicago Center
Sun 11:55:42 AM 41.2256 -87.7431 94° East 173 199 5,000  Level Chicago Center
Sun 11:56:44 AM 41.2217 -87.6789 95° East 174 200 5,000  Level Chicago Center
Sun 11:57:46 AM 41.2183 -87.6144 94° East 175 201 5,000  Level Chicago Center
Sun 11:58:48 AM 41.2153 -87.5517 94° East 174 200 5,000  Level Chicago Center
Sun 11:59:50 AM 41.2122 -87.4872 94° East 175 201 5,000  Level Chicago Center
Sun 12:00:52 PM 41.2078 -87.4106 94° East 175 201 5,000  Level Chicago Center
Sun 12:01:54 PM 41.2039 -87.3467 95° East 176 203 5,000  Level Chicago Center
Sun 12:02:56 PM 41.2006 -87.2828 94° East 175 201 5,000  Level Chicago Center
Sun 12:03:58 PM 41.1978 -87.2186 93° East 175 201 5,000  Level Chicago Center
Sun 12:05:00 PM 41.1939 -87.1550 95° East 174 200 5,000  Level Chicago Center
Sun 12:06:02 PM 41.1897 -87.0783 94° East 175 201 5,000  Level Chicago Center
Sun 12:07:04 PM 41.1864 -87.0147 94° East 175 201 5,000  Level Chicago Center
Sun 12:08:06 PM 41.1822 -86.9506 95° East 175 201 5,000  Level Chicago Center
Sun 12:09:08 PM 41.2114 -86.9006 52° Northeast 185 213 5,000  Level Chicago Center
Sun 12:10:10 PM 41.2419 -86.8561 48° Northeast 169 194 5,000  Level Chicago Center
Sun 12:11:12 PM 41.2803 -86.7994 48° Northeast 171 197 5,000  Level Chicago Center
Sun 12:12:13 PM 41.3106 -86.7525 49° Northeast 171 197 5,000  Level Chicago Center
Sun 12:13:15 PM 41.3417 -86.7064 48° Northeast 170 196 5,000  Level Chicago Center
Sun 12:14:17 PM 41.3717 -86.6594 50° Northeast 169 194 5,000  Level Chicago Center
Sun 12:15:19 PM 41.4039 -86.6108 49° Northeast 171 197 5,000  Level Chicago Center
Sun 12:16:21 PM 41.4369 -86.5653 46° Northeast 171 197 5,000  Level Chicago Center
Sun 12:17:23 PM 41.4761 -86.5083 47° Northeast 173 199 5,000  Level Chicago Center
Sun 12:18:25 PM 41.5011 -86.4697 49° Northeast 173 199 5,000  Level Chicago Center
Sun 12:19:27 PM 41.5400 -86.4117 48° Northeast 174 200 5,000  Level Chicago Center
Sun 12:20:29 PM 41.5711 -86.3639 49° Northeast 172 198 5,000  Level Chicago Center
Sun 12:21:31 PM 41.6042 -86.3161 47° Northeast 174 200 5,000  Level Chicago Center
Sun 12:22:33 PM 41.6361 -86.2672 49° Northeast 174 200 5,000  Level Chicago Center
Sun 12:23:34 PM 41.6683 -86.2189 48° Northeast 174 200 5,000  Level Chicago Center
Sun 12:24:36 PM 41.7075 -86.1608 48° Northeast 175 201 5,000  Level Chicago Center
Sun 12:25:38 PM 41.7394 -86.1139 48° Northeast 174 200 5,000  Level Chicago Center
Sun 12:26:40 PM 41.7714 -86.0650 49° Northeast 173 199 5,000  Level Chicago Center
Sun 12:27:42 PM 41.8039 -86.0167 48° Northeast 174 200 5,000  Level Chicago Center
Sun 12:28:44 PM 41.8372 -85.9664 48° Northeast 178 205 5,000  Level Chicago Center
Sun 12:29:46 PM 41.8692 -85.9178 49° Northeast 175 201 5,000 -194 Level Chicago Center
Sun 12:30:48 PM 41.9092 -85.8619 46° Northeast 174 200 4,600 -435 Descending Chicago Center
Sun 12:31:50 PM 41.9483 -85.8117 44° Northeast 187 215 4,100 -290 Descending Chicago Center
Sun 12:32:52 PM 41.9769 -85.7553 56° Northeast 188 216 4,000 -97 Descending Chicago Center
Sun 12:33:54 PM 41.9939 -85.6933 70° East 180 207 3,900 -290 Descending Chicago Center
Sun 12:34:56 PM 42.0136 -85.6294 67° East 182 209 3,400 -435 Descending Chicago Center
Sun 12:35:58 PM 42.0308 -85.5617 71° East 188 216 3,000 -194 Descending Chicago Center
Sun 12:37:00 PM 42.0503 -85.5019 66° East 183 211 3,000  Level Chicago Center
Sun 12:38:02 PM 42.0733 -85.4364 65° Northeast 171 197 3,000  Level Chicago Center
Sun 12:39:04 PM 42.0878 -85.3806 71° East 164 189 3,000  Level Chicago Center
Sun 12:40:06 PM 42.1036 -85.3261 69° East 159 183 3,000  Level Chicago Center
Sun 12:41:08 PM 42.1214 -85.2719 66° East 158 182 3,000  Level Chicago Center
Sun 12:42:10 PM 42.1381 -85.2169 68° East 158 182 3,000  Level Chicago Center
Sun 12:43:12 PM 42.1547 -85.1633 67° East 157 181 3,000  Level Chicago Center
Sun 12:44:14 PM 42.1694 -85.1186 66° East 147 169 3,000  Level Chicago Center
Sun 12:45:16 PM 42.1944 -85.0828 47° Northeast 126 145 3,000  Level Chicago Center
Sun 12:47:19 PM 42.2367 -85.1089 335° Northwest 98 113 3,000  Level Chicago Center
Sun 12:48:21 PM 42.2528 -85.1425 303° West 99 114 3,000 968 Level Chicago Center
Sun 12:49:23 PM 42.2708 -85.1728 309° West 102 117 5,000 -435 Climbing Chicago Center
Sun 12:50:25 PM 42.2861 -85.2036 304° West 102 117 2,100 -1,694 Descending Chicago Center
Sun 12:51:27 PM 42.2997 -85.2294 305° West 95 109 1,500 -581 Descending Chicago Center

Login

Don't have an account? Register now (free) for customized features, flight alerts, and more!